createdAt,value
2022-10-19T00:00:32.588Z,1004.61
2022-10-19T00:01:32.590Z,1004.55
2022-10-19T00:02:32.647Z,1004.59
2022-10-19T00:03:32.636Z,1004.69
2022-10-19T00:04:32.568Z,1004.57
2022-10-19T00:05:32.552Z,1004.60
2022-10-19T00:06:32.544Z,1004.63
2022-10-19T00:07:32.957Z,1004.69
2022-10-19T00:08:32.562Z,1004.63
2022-10-19T00:09:32.530Z,1004.68
2022-10-19T00:10:32.508Z,1004.69
2022-10-19T00:11:33.509Z,1004.71
2022-10-19T00:12:32.499Z,1004.78
2022-10-19T00:13:32.516Z,1004.74
2022-10-19T00:14:32.487Z,1004.66
2022-10-19T00:15:32.476Z,1004.79
2022-10-19T00:16:32.477Z,1004.73
2022-10-19T00:17:32.775Z,1004.74
2022-10-19T00:18:32.487Z,1004.73
2022-10-19T00:19:32.451Z,1004.75
2022-10-19T00:20:32.439Z,1004.65
2022-10-19T00:21:32.432Z,1004.72
2022-10-19T00:22:32.801Z,1004.72
2022-10-19T00:23:32.445Z,1004.70
2022-10-19T00:24:32.408Z,1004.76
2022-10-19T00:25:32.402Z,1004.76
2022-10-19T00:26:32.392Z,1004.76
2022-10-19T00:27:32.393Z,1004.75
2022-10-19T00:28:32.458Z,1004.75
2022-10-19T00:29:32.363Z,1004.75
2022-10-19T00:30:32.360Z,1004.73
2022-10-19T00:31:32.351Z,1004.74
2022-10-19T00:32:32.773Z,1004.79
2022-10-19T00:33:32.353Z,1004.79
2022-10-19T00:34:32.329Z,1004.72
2022-10-19T00:35:32.313Z,1004.72
2022-10-19T00:36:32.314Z,1004.76
2022-10-19T00:37:32.302Z,1004.75
2022-10-19T00:38:32.324Z,1004.76
2022-10-19T00:39:32.291Z,1004.80
2022-10-19T00:40:32.278Z,1004.82
2022-10-19T00:41:32.270Z,1004.79
2022-10-19T00:42:32.597Z,1004.80
2022-10-19T00:43:32.290Z,1004.76
2022-10-19T00:44:32.234Z,1004.86
2022-10-19T00:45:33.232Z,1004.83
2022-10-19T00:46:32.235Z,1004.82
2022-10-19T00:47:32.224Z,1004.85
2022-10-19T00:48:32.245Z,1004.90
2022-10-19T00:49:32.206Z,1004.82
2022-10-19T00:50:32.197Z,1004.84
2022-10-19T00:51:32.193Z,1004.88
2022-10-19T00:52:32.624Z,1004.91
2022-10-19T00:53:32.216Z,1004.88
2022-10-19T00:54:32.169Z,1004.88
2022-10-19T00:55:32.164Z,1004.81
2022-10-19T00:56:32.164Z,1004.78
2022-10-19T00:57:32.151Z,1004.76
2022-10-19T00:58:32.141Z,1004.78
2022-10-19T00:59:32.158Z,1004.73
2022-10-19T01:00:32.123Z,1004.78
2022-10-19T01:01:32.201Z,1004.78
2022-10-19T01:02:32.534Z,1004.77
2022-10-19T01:03:32.101Z,1004.82
2022-10-19T01:04:33.117Z,1004.75
2022-10-19T01:05:32.088Z,1004.75
2022-10-19T01:06:32.077Z,1004.77
2022-10-19T01:07:32.404Z,1004.75
2022-10-19T01:08:32.063Z,1004.73
2022-10-19T01:09:32.095Z,1004.69
2022-10-19T01:10:32.048Z,1004.71
2022-10-19T01:11:32.040Z,1004.69
2022-10-19T01:12:32.032Z,1004.69
2022-10-19T01:13:32.023Z,1004.69
2022-10-19T01:14:32.036Z,1004.67
2022-10-19T01:15:32.004Z,1004.63
2022-10-19T01:16:32.001Z,1004.54
2022-10-19T01:17:32.282Z,1004.63
2022-10-19T01:18:31.981Z,1004.62
2022-10-19T01:19:31.999Z,1004.54
2022-10-19T01:20:31.967Z,1004.53
2022-10-19T01:21:31.959Z,1004.52
2022-10-19T01:22:31.952Z,1004.51
2022-10-19T01:23:31.935Z,1004.50
2022-10-19T01:24:32.663Z,1004.47
2022-10-19T01:25:31.926Z,1004.49
2022-10-19T01:26:31.914Z,1004.53
2022-10-19T01:27:32.309Z,1004.50
2022-10-19T01:28:31.977Z,1004.44
2022-10-19T01:29:31.925Z,1004.44
2022-10-19T01:30:31.882Z,1004.43
2022-10-19T01:31:31.882Z,1004.49
2022-10-19T01:32:31.861Z,1004.46
2022-10-19T01:33:31.862Z,1004.46
2022-10-19T01:34:31.883Z,1004.50
2022-10-19T01:35:31.841Z,1004.54
2022-10-19T01:36:31.835Z,1004.49
2022-10-19T01:37:32.161Z,1004.52
2022-10-19T01:38:31.818Z,1004.46
2022-10-19T01:39:31.834Z,1004.50
2022-10-19T01:40:31.812Z,1004.49
2022-10-19T01:41:31.798Z,1004.46
2022-10-19T01:42:31.795Z,1004.44
2022-10-19T01:43:31.796Z,1004.44
2022-10-19T01:44:31.813Z,1004.43
2022-10-19T01:45:31.768Z,1004.44
2022-10-19T01:46:31.766Z,1004.43
2022-10-19T01:47:31.949Z,1004.38
2022-10-19T01:48:31.750Z,1004.35
2022-10-19T01:49:31.765Z,1004.36
2022-10-19T01:50:31.731Z,1004.38
2022-10-19T01:51:31.733Z,1004.37
2022-10-19T01:52:31.974Z,1004.30
2022-10-19T01:53:31.704Z,1004.35
2022-10-19T01:54:31.735Z,1004.31
2022-10-19T01:55:31.688Z,1004.31
2022-10-19T01:56:31.691Z,1004.26
2022-10-19T01:57:31.685Z,1004.25
2022-10-19T01:58:31.672Z,1004.25
2022-10-19T01:59:31.695Z,1004.28
2022-10-19T02:00:31.670Z,1004.27
2022-10-19T02:01:31.649Z,1004.24
2022-10-19T02:02:31.856Z,1004.28
2022-10-19T02:03:31.629Z,1004.29
2022-10-19T02:04:31.656Z,1004.26
2022-10-19T02:05:31.625Z,1004.20
2022-10-19T02:06:31.610Z,1004.18
2022-10-19T02:07:32.611Z,1004.21
2022-10-19T02:08:31.599Z,1004.19
2022-10-19T02:09:31.619Z,1004.23
2022-10-19T02:10:31.590Z,1004.27
2022-10-19T02:11:31.582Z,1004.20
2022-10-19T02:12:31.865Z,1004.23
2022-10-19T02:13:31.562Z,1004.22
2022-10-19T02:14:31.582Z,1004.14
2022-10-19T02:15:31.548Z,1004.14
2022-10-19T02:16:31.536Z,1004.16
2022-10-19T02:17:31.541Z,1004.17
2022-10-19T02:18:31.533Z,1004.20
2022-10-19T02:19:31.557Z,1004.17
2022-10-19T02:20:31.542Z,1004.15
2022-10-19T02:21:31.504Z,1004.14
2022-10-19T02:22:31.629Z,1004.13
2022-10-19T02:23:31.489Z,1004.05
2022-10-19T02:24:31.672Z,1004.19
2022-10-19T02:25:31.470Z,1004.12
2022-10-19T02:26:31.465Z,1004.03
2022-10-19T02:27:31.461Z,1003.99
2022-10-19T02:28:31.453Z,1004.07
2022-10-19T02:29:31.471Z,1004.09
2022-10-19T02:30:31.431Z,1004.09
2022-10-19T02:31:31.422Z,1003.99
2022-10-19T02:32:31.595Z,1004.01
2022-10-19T02:33:31.412Z,1004.11
2022-10-19T02:34:31.403Z,1004.10
2022-10-19T02:35:31.416Z,1004.06
2022-10-19T02:36:31.389Z,1004.04
2022-10-19T02:37:31.428Z,1004.04
2022-10-19T02:38:31.373Z,1004.01
2022-10-19T02:39:31.373Z,1003.97
2022-10-19T02:40:31.391Z,1003.97
2022-10-19T02:41:31.355Z,1004.05
2022-10-19T02:42:31.701Z,1004.09
2022-10-19T02:43:31.336Z,1004.08
2022-10-19T02:44:31.328Z,1004.08
2022-10-19T02:45:31.346Z,1004.15
2022-10-19T02:46:31.387Z,1004.13
2022-10-19T02:47:31.559Z,1004.10
2022-10-19T02:48:31.297Z,1004.11
2022-10-19T02:49:31.286Z,1004.08
2022-10-19T02:50:31.316Z,1004.07
2022-10-19T02:51:31.279Z,1004.05
2022-10-19T02:52:31.263Z,1004.15
2022-10-19T02:53:31.263Z,1004.21
2022-10-19T02:54:31.256Z,1004.12
2022-10-19T02:55:31.374Z,1004.17
2022-10-19T02:56:31.237Z,1004.15
2022-10-19T02:57:31.499Z,1004.13
2022-10-19T02:58:31.223Z,1004.14
2022-10-19T02:59:31.213Z,1004.13
2022-10-19T03:00:31.232Z,1004.08
2022-10-19T03:01:31.204Z,1004.12
2022-10-19T03:02:31.192Z,1004.15
2022-10-19T03:03:31.182Z,1003.99
2022-10-19T03:04:31.180Z,1004.02
2022-10-19T03:05:31.192Z,1004.09
2022-10-19T03:06:31.161Z,1004.11
2022-10-19T03:07:31.487Z,1004.06
2022-10-19T03:08:31.146Z,1003.99
2022-10-19T03:09:31.142Z,1004.02
2022-10-19T03:10:31.156Z,1004.02
2022-10-19T03:11:31.129Z,1004.02
2022-10-19T03:12:31.116Z,1004.08
2022-10-19T03:13:31.111Z,1003.99
2022-10-19T03:14:31.102Z,1004.05
2022-10-19T03:15:31.120Z,1004.04
2022-10-19T03:16:31.091Z,1004.03
2022-10-19T03:17:31.223Z,1004.01
2022-10-19T03:18:31.072Z,1004.00
2022-10-19T03:19:31.061Z,1004.08
2022-10-19T03:20:31.083Z,1004.11
2022-10-19T03:21:31.056Z,1004.06
2022-10-19T03:22:31.040Z,1004.08
2022-10-19T03:23:31.032Z,1004.10
2022-10-19T03:24:31.019Z,1004.16
2022-10-19T03:25:31.043Z,1004.09
2022-10-19T03:26:31.011Z,1004.09
2022-10-19T03:27:31.289Z,1004.14
2022-10-19T03:28:31.057Z,1004.05
2022-10-19T03:29:30.988Z,1004.20
2022-10-19T03:30:31.008Z,1004.16
2022-10-19T03:31:30.977Z,1004.18
2022-10-19T03:32:30.966Z,1004.20
2022-10-19T03:33:30.967Z,1004.23
2022-10-19T03:34:30.951Z,1004.25
2022-10-19T03:35:30.973Z,1004.24
2022-10-19T03:36:30.937Z,1004.26
2022-10-19T03:37:31.136Z,1004.27
2022-10-19T03:38:30.914Z,1004.28
2022-10-19T03:39:30.919Z,1004.29
2022-10-19T03:40:30.933Z,1004.30
2022-10-19T03:41:30.887Z,1004.28
2022-10-19T03:42:30.892Z,1004.31
2022-10-19T03:43:30.874Z,1004.33
2022-10-19T03:44:30.872Z,1004.32
2022-10-19T03:45:30.888Z,1004.36
2022-10-19T03:46:30.845Z,1004.36
2022-10-19T03:47:30.898Z,1004.34
2022-10-19T03:48:30.838Z,1004.41
2022-10-19T03:49:30.830Z,1004.35
2022-10-19T03:50:30.842Z,1004.34
2022-10-19T03:51:30.812Z,1004.41
2022-10-19T03:52:30.806Z,1004.39
2022-10-19T03:53:32.529Z,1004.44
2022-10-19T03:54:30.788Z,1004.36
2022-10-19T03:55:30.812Z,1004.37
2022-10-19T03:56:30.774Z,1004.38
2022-10-19T03:57:30.942Z,1004.40
2022-10-19T03:58:30.756Z,1004.41
2022-10-19T03:59:31.756Z,1004.42
2022-10-19T04:00:30.769Z,1004.39
2022-10-19T04:01:30.815Z,1004.43
2022-10-19T04:02:30.729Z,1004.48
2022-10-19T04:03:30.771Z,1004.48
2022-10-19T04:04:30.707Z,1004.52
2022-10-19T04:05:30.731Z,1004.44
2022-10-19T04:06:30.704Z,1004.49
2022-10-19T04:07:30.719Z,1004.53
2022-10-19T04:08:30.686Z,1004.51
2022-10-19T04:09:30.669Z,1004.53
2022-10-19T04:10:30.693Z,1004.51
2022-10-19T04:11:30.659Z,1004.51
2022-10-19T04:12:30.650Z,1004.52
2022-10-19T04:13:30.648Z,1004.52
2022-10-19T04:14:33.182Z,1004.50
2022-10-19T04:15:32.657Z,1004.53
2022-10-19T04:16:30.622Z,1004.52
2022-10-19T04:17:30.684Z,1004.49
2022-10-19T04:18:30.609Z,1004.57
2022-10-19T04:19:30.609Z,1004.56
2022-10-19T04:20:30.617Z,1004.54
2022-10-19T04:21:30.584Z,1004.57
2022-10-19T04:22:30.583Z,1004.54
2022-10-19T04:23:30.576Z,1004.59
2022-10-19T04:24:30.558Z,1004.49
2022-10-19T04:25:30.602Z,1004.59
2022-10-19T04:26:30.544Z,1004.56
2022-10-19T04:27:30.600Z,1004.58
2022-10-19T04:28:31.594Z,1004.52
2022-10-19T04:29:30.913Z,1004.62
2022-10-19T04:30:30.549Z,1004.53
2022-10-19T04:31:30.502Z,1004.57
2022-10-19T04:32:30.501Z,1004.54
2022-10-19T04:33:30.492Z,1004.52
2022-10-19T04:34:30.475Z,1004.58
2022-10-19T04:35:30.500Z,1004.57
2022-10-19T04:36:30.467Z,1004.61
2022-10-19T04:37:30.481Z,1004.60
2022-10-19T04:38:30.461Z,1004.62
2022-10-19T04:39:30.446Z,1004.61
2022-10-19T04:40:30.527Z,1004.58
2022-10-19T04:41:30.430Z,1004.66
2022-10-19T04:42:30.423Z,1004.61
2022-10-19T04:43:30.416Z,1004.66
2022-10-19T04:44:30.409Z,1004.67
2022-10-19T04:45:30.427Z,1004.61
2022-10-19T04:46:30.387Z,1004.68
2022-10-19T04:47:30.434Z,1004.67
2022-10-19T04:48:30.378Z,1004.65
2022-10-19T04:49:30.367Z,1004.64
2022-10-19T04:50:30.378Z,1004.63
2022-10-19T04:51:30.349Z,1004.68
2022-10-19T04:52:30.349Z,1004.56
2022-10-19T04:53:30.345Z,1004.58
2022-10-19T04:54:30.325Z,1004.59
2022-10-19T04:55:30.435Z,1004.62
2022-10-19T04:56:30.321Z,1004.53
2022-10-19T04:57:30.303Z,1004.60
2022-10-19T04:58:30.296Z,1004.61
2022-10-19T04:59:30.291Z,1004.64
2022-10-19T05:00:30.305Z,1004.61
2022-10-19T05:01:30.271Z,1004.57
2022-10-19T05:02:30.261Z,1004.53
2022-10-19T05:03:30.256Z,1004.62
2022-10-19T05:04:30.251Z,1004.54
2022-10-19T05:05:30.266Z,1004.55
2022-10-19T05:06:30.229Z,1004.48
2022-10-19T05:07:30.225Z,1004.50
2022-10-19T05:08:30.216Z,1004.53
2022-10-19T05:09:30.208Z,1004.51
2022-10-19T05:10:30.225Z,1004.52
2022-10-19T05:11:30.191Z,1004.52
2022-10-19T05:12:30.184Z,1004.56
2022-10-19T05:13:30.182Z,1004.50
2022-10-19T05:14:30.175Z,1004.53
2022-10-19T05:15:30.189Z,1004.55
2022-10-19T05:16:30.153Z,1004.55
2022-10-19T05:17:30.145Z,1004.47
2022-10-19T05:18:30.175Z,1004.49
2022-10-19T05:19:30.136Z,1004.44
2022-10-19T05:20:30.154Z,1004.42
2022-10-19T05:21:30.120Z,1004.36
2022-10-19T05:22:30.115Z,1004.35
2022-10-19T05:23:30.101Z,1004.36
2022-10-19T05:24:30.095Z,1004.38
2022-10-19T05:25:30.114Z,1004.35
2022-10-19T05:26:30.086Z,1004.36
2022-10-19T05:27:30.072Z,1004.36
2022-10-19T05:28:30.086Z,1004.38
2022-10-19T05:29:30.054Z,1004.33
2022-10-19T05:30:30.073Z,1004.31
2022-10-19T05:31:30.058Z,1004.39
2022-10-19T05:32:30.028Z,1004.42
2022-10-19T05:33:30.022Z,1004.41
2022-10-19T05:34:30.012Z,1004.47
2022-10-19T05:35:30.034Z,1004.46
2022-10-19T05:36:30.000Z,1004.48
2022-10-19T05:37:29.991Z,1004.49
2022-10-19T05:38:29.981Z,1004.48
2022-10-19T05:39:29.972Z,1004.44
2022-10-19T05:40:29.996Z,1004.47
2022-10-19T05:41:29.957Z,1004.45
2022-10-19T05:42:29.951Z,1004.42
2022-10-19T05:43:29.963Z,1004.41
2022-10-19T05:44:29.971Z,1004.43
2022-10-19T05:45:29.945Z,1004.40
2022-10-19T05:46:29.919Z,1004.43
2022-10-19T05:47:31.067Z,1004.44
2022-10-19T05:48:30.057Z,1004.47
2022-10-19T05:49:29.890Z,1004.50
2022-10-19T05:50:29.913Z,1004.44
2022-10-19T05:51:29.875Z,1004.43
2022-10-19T05:52:29.869Z,1004.45
2022-10-19T05:53:29.921Z,1004.45
2022-10-19T05:54:29.861Z,1004.49
2022-10-19T05:55:29.876Z,1004.47
2022-10-19T05:56:29.832Z,1004.44
2022-10-19T05:57:29.824Z,1004.52
2022-10-19T05:58:29.824Z,1004.49
2022-10-19T05:59:29.812Z,1004.52
2022-10-19T06:00:29.837Z,1004.42
2022-10-19T06:01:29.835Z,1004.55
2022-10-19T06:02:29.795Z,1004.58
2022-10-19T06:03:29.781Z,1004.56
2022-10-19T06:04:29.777Z,1004.52
2022-10-19T06:05:29.799Z,1004.60
2022-10-19T06:06:29.758Z,1004.63
2022-10-19T06:07:29.751Z,1004.64
2022-10-19T06:08:29.744Z,1004.69
2022-10-19T06:09:29.738Z,1004.66
2022-10-19T06:10:29.755Z,1004.69
2022-10-19T06:11:29.725Z,1004.70
2022-10-19T06:12:29.715Z,1004.68
2022-10-19T06:13:29.709Z,1004.67
2022-10-19T06:14:29.697Z,1004.72
2022-10-19T06:15:29.718Z,1004.68
2022-10-19T06:16:29.685Z,1004.73
2022-10-19T06:17:29.674Z,1004.74
2022-10-19T06:18:29.674Z,1004.73
2022-10-19T06:19:29.663Z,1004.77
2022-10-19T06:20:29.685Z,1004.73
2022-10-19T06:21:29.646Z,1004.74
2022-10-19T06:22:29.630Z,1004.75
2022-10-19T06:23:30.684Z,1004.74
2022-10-19T06:24:29.627Z,1004.70
2022-10-19T06:25:29.643Z,1004.69
2022-10-19T06:26:29.616Z,1004.69
2022-10-19T06:27:29.666Z,1004.70
2022-10-19T06:28:29.594Z,1004.71
2022-10-19T06:29:29.586Z,1004.64
2022-10-19T06:30:29.722Z,1004.63
2022-10-19T06:31:29.570Z,1004.63
2022-10-19T06:32:29.561Z,1004.65
2022-10-19T06:33:29.568Z,1004.72
2022-10-19T06:34:29.583Z,1004.70
2022-10-19T06:35:29.569Z,1004.72
2022-10-19T06:36:29.534Z,1004.62
2022-10-19T06:37:29.521Z,1004.63
2022-10-19T06:38:29.533Z,1004.66
2022-10-19T06:39:29.508Z,1004.61
2022-10-19T06:40:29.625Z,1004.64
2022-10-19T06:41:29.497Z,1004.66
2022-10-19T06:42:29.488Z,1004.69
2022-10-19T06:43:29.486Z,1004.68
2022-10-19T06:44:29.492Z,1004.70
2022-10-19T06:45:32.276Z,1004.66
2022-10-19T06:46:31.454Z,1004.74
2022-10-19T06:47:29.465Z,1004.70
2022-10-19T06:48:29.439Z,1004.67
2022-10-19T06:49:29.433Z,1004.78
2022-10-19T06:50:29.453Z,1004.84
2022-10-19T06:51:29.417Z,1004.78
2022-10-19T06:52:29.410Z,1004.76
2022-10-19T06:53:29.406Z,1004.81
2022-10-19T06:54:29.398Z,1004.82
2022-10-19T06:55:29.423Z,1004.74
2022-10-19T06:56:29.382Z,1004.84
2022-10-19T06:57:29.386Z,1004.82
2022-10-19T06:58:29.366Z,1004.86
2022-10-19T06:59:29.362Z,1004.88
2022-10-19T07:00:29.462Z,1004.83
2022-10-19T07:01:29.402Z,1004.86
2022-10-19T07:02:29.332Z,1004.83
2022-10-19T07:03:29.334Z,1004.87
2022-10-19T07:04:29.317Z,1004.89
2022-10-19T07:05:29.335Z,1004.88
2022-10-19T07:06:29.298Z,1004.90
2022-10-19T07:07:29.334Z,1004.90
2022-10-19T07:08:29.284Z,1004.93
2022-10-19T07:09:29.278Z,1004.90
2022-10-19T07:10:29.300Z,1004.91
2022-10-19T07:11:29.265Z,1004.95
2022-10-19T07:12:29.256Z,1004.96
2022-10-19T07:13:29.248Z,1004.93
2022-10-19T07:14:29.235Z,1004.90
2022-10-19T07:15:29.264Z,1004.94
2022-10-19T07:16:29.223Z,1004.95
2022-10-19T07:17:29.216Z,1004.98
2022-10-19T07:18:29.210Z,1004.88
2022-10-19T07:19:29.202Z,1004.97
2022-10-19T07:20:29.220Z,1004.93
2022-10-19T07:21:29.186Z,1004.98
2022-10-19T07:22:29.178Z,1004.98
2022-10-19T07:23:29.172Z,1005.03
2022-10-19T07:24:29.165Z,1005.03
2022-10-19T07:25:29.183Z,1005.02
2022-10-19T07:26:29.149Z,1004.97
2022-10-19T07:27:31.819Z,1005.07
2022-10-19T07:28:29.129Z,1004.99
2022-10-19T07:29:29.121Z,1005.03
2022-10-19T07:30:29.135Z,1005.05
2022-10-19T07:31:29.108Z,1005.07
2022-10-19T07:32:29.097Z,1005.04
2022-10-19T07:33:29.090Z,1005.11
2022-10-19T07:34:29.193Z,1005.07
2022-10-19T07:35:29.097Z,1005.08
2022-10-19T07:36:29.069Z,1005.07
2022-10-19T07:37:29.058Z,1005.00
2022-10-19T07:38:29.058Z,1005.19
2022-10-19T07:39:29.046Z,1005.09
2022-10-19T07:40:29.223Z,1005.16
2022-10-19T07:41:29.026Z,1005.11
2022-10-19T07:42:29.030Z,1005.15
2022-10-19T07:43:29.010Z,1005.14
2022-10-19T07:44:29.013Z,1005.13
2022-10-19T07:45:29.021Z,1005.17
2022-10-19T07:46:28.987Z,1005.17
2022-10-19T07:47:29.009Z,1005.14
2022-10-19T07:48:28.973Z,1005.21
2022-10-19T07:49:28.967Z,1005.19
2022-10-19T07:50:28.983Z,1005.20
2022-10-19T07:52:30.790Z,1005.16
2022-10-19T07:53:28.932Z,1005.12
2022-10-19T07:54:28.924Z,1005.18
2022-10-19T07:55:28.943Z,1005.23
2022-10-19T07:56:28.910Z,1005.19
2022-10-19T07:57:28.915Z,1005.25
2022-10-19T07:58:28.894Z,1005.20
2022-10-19T07:59:28.886Z,1005.15
2022-10-19T08:00:29.022Z,1005.18
2022-10-19T08:01:28.862Z,1005.18
2022-10-19T08:02:39.363Z,1005.16
2022-10-19T08:04:14.297Z,1005.09
2022-10-19T08:04:55.902Z,1005.14
2022-10-19T08:05:30.867Z,1005.06
2022-10-19T08:06:28.835Z,1005.13
2022-10-19T08:07:28.819Z,1005.02
2022-10-19T08:08:28.865Z,1005.07
2022-10-19T08:09:51.363Z,1005.03
2022-10-19T08:10:30.828Z,1005.01
2022-10-19T08:11:28.787Z,1005.07
2022-10-19T08:12:28.784Z,1005.11
2022-10-19T08:13:28.780Z,1005.04
2022-10-19T08:14:28.771Z,1005.07
2022-10-19T08:15:28.785Z,1005.03
2022-10-19T08:16:28.755Z,1005.17
2022-10-19T08:17:28.747Z,1005.06
2022-10-19T08:18:28.780Z,1005.06
2022-10-19T08:19:28.734Z,1005.05
2022-10-19T08:20:28.756Z,1005.08
2022-10-19T08:21:28.723Z,1005.07
2022-10-19T08:22:28.708Z,1004.98
2022-10-19T08:23:28.701Z,1005.00
2022-10-19T08:24:28.696Z,1005.00
2022-10-19T08:25:28.708Z,1005.01
2022-10-19T08:26:28.676Z,1005.01
2022-10-19T08:27:28.694Z,1004.99
2022-10-19T08:28:28.678Z,1005.00
2022-10-19T08:29:30.713Z,1005.00
2022-10-19T08:30:28.667Z,1004.98
2022-10-19T08:31:28.633Z,1005.02
2022-10-19T08:32:28.629Z,1005.07
2022-10-19T08:33:28.620Z,1005.04
2022-10-19T08:34:28.608Z,1004.93
2022-10-19T08:35:28.628Z,1005.01
2022-10-19T08:36:28.697Z,1004.98
2022-10-19T08:37:40.641Z,1005.00
2022-10-19T08:38:30.578Z,1004.92
2022-10-19T08:39:28.573Z,1004.94
2022-10-19T08:40:28.591Z,1004.97
2022-10-19T08:41:28.562Z,1005.02
2022-10-19T08:42:28.557Z,1005.01
2022-10-19T08:43:28.543Z,1004.96
2022-10-19T08:44:28.536Z,1004.97
2022-10-19T08:45:28.639Z,1004.96
2022-10-19T08:46:28.516Z,1004.90
2022-10-19T08:47:28.578Z,1004.93
2022-10-19T08:48:28.507Z,1004.96
2022-10-19T08:49:28.500Z,1004.96
2022-10-19T08:50:28.507Z,1004.94
2022-10-19T08:51:28.479Z,1004.93
2022-10-19T08:52:32.043Z,1004.91
2022-10-19T08:53:30.466Z,1004.93
2022-10-19T08:54:28.457Z,1004.90
2022-10-19T08:55:28.476Z,1004.88
2022-10-19T08:56:52.055Z,1004.87
2022-10-19T08:57:30.431Z,1004.84
2022-10-19T08:58:28.423Z,1004.92
2022-10-19T08:59:28.425Z,1004.79
2022-10-19T09:00:28.498Z,1004.80
2022-10-19T09:01:28.402Z,1004.84
2022-10-19T09:02:28.396Z,1004.86
2022-10-19T09:03:37.869Z,1004.81
2022-10-19T09:04:29.382Z,1004.86
2022-10-19T09:05:28.401Z,1004.84
2022-10-19T09:06:28.362Z,1004.77
2022-10-19T09:07:28.360Z,1004.79
2022-10-19T09:08:28.397Z,1004.84
2022-10-19T09:09:28.347Z,1004.84
2022-10-19T09:10:28.364Z,1004.86
2022-10-19T09:11:28.330Z,1004.83
2022-10-19T09:12:28.322Z,1004.74
2022-10-19T09:13:36.432Z,1004.84
2022-10-19T09:14:30.305Z,1004.74
2022-10-19T09:15:28.326Z,1004.76
2022-10-19T09:16:28.290Z,1004.77
2022-10-19T09:17:28.281Z,1004.81
2022-10-19T09:18:28.275Z,1004.79
2022-10-19T09:19:28.271Z,1004.78
2022-10-19T09:20:28.290Z,1004.77
2022-10-19T09:21:34.395Z,1004.72
2022-10-19T09:22:29.245Z,1004.72
2022-10-19T09:23:28.242Z,1004.77
2022-10-19T09:24:28.226Z,1004.76
2022-10-19T09:25:28.243Z,1004.75
2022-10-19T09:26:28.212Z,1004.75
2022-10-19T09:27:28.207Z,1004.80
2022-10-19T09:28:31.569Z,1004.78
2022-10-19T09:29:29.189Z,1004.70
2022-10-19T09:30:28.202Z,1004.70
2022-10-19T09:31:31.486Z,1004.63
2022-10-19T09:32:29.165Z,1004.68
2022-10-19T09:33:28.152Z,1004.75
2022-10-19T09:34:28.149Z,1004.69
2022-10-19T09:35:28.162Z,1004.76
2022-10-19T09:36:49.370Z,1004.69
2022-10-19T09:38:28.121Z,1004.72
2022-10-19T09:39:29.539Z,1004.72
2022-10-19T09:40:28.122Z,1004.75
2022-10-19T09:41:28.095Z,1004.66
2022-10-19T09:42:28.085Z,1004.66
2022-10-19T09:43:28.086Z,1004.68
2022-10-19T09:44:28.071Z,1004.68
2022-10-19T09:45:28.086Z,1004.75
2022-10-19T09:46:28.093Z,1004.68
2022-10-19T09:47:28.042Z,1004.66
2022-10-19T09:48:28.035Z,1004.71
2022-10-19T09:49:28.033Z,1004.67
2022-10-19T09:50:28.044Z,1004.72
2022-10-19T09:51:28.011Z,1004.73
2022-10-19T09:52:28.004Z,1004.71
2022-10-19T09:53:27.997Z,1004.76
2022-10-19T09:54:27.990Z,1004.75
2022-10-19T09:55:28.006Z,1004.67
2022-10-19T09:56:27.983Z,1004.69
2022-10-19T09:57:27.964Z,1004.64
2022-10-19T09:58:30.524Z,1004.61
2022-10-19T09:59:28.951Z,1004.67
2022-10-19T10:00:27.967Z,1004.68
2022-10-19T10:01:34.151Z,1004.62
2022-10-19T10:02:29.943Z,1004.63
2022-10-19T10:03:27.925Z,1004.60
2022-10-19T10:04:27.911Z,1004.65
2022-10-19T10:05:27.940Z,1004.64
2022-10-19T10:06:27.901Z,1004.59
2022-10-19T10:07:27.900Z,1004.62
2022-10-19T10:08:27.970Z,1004.59
2022-10-19T10:09:27.919Z,1004.55
2022-10-19T10:10:30.428Z,1004.57
2022-10-19T10:11:27.882Z,1004.53
2022-10-19T10:12:27.860Z,1004.53
2022-10-19T10:13:27.840Z,1004.62
2022-10-19T10:14:27.831Z,1004.55
2022-10-19T10:15:27.857Z,1004.56
2022-10-19T10:16:27.818Z,1004.53
2022-10-19T10:17:27.808Z,1004.50
2022-10-19T10:18:27.803Z,1004.59
2022-10-19T10:19:27.791Z,1004.53
2022-10-19T10:20:27.801Z,1004.63
2022-10-19T10:21:27.803Z,1004.53
2022-10-19T10:22:27.771Z,1004.53
2022-10-19T10:23:27.758Z,1004.59
2022-10-19T10:24:27.754Z,1004.53
2022-10-19T10:25:27.746Z,1004.48
2022-10-19T10:26:27.789Z,1004.54
2022-10-19T10:27:27.730Z,1004.48
2022-10-19T10:28:27.723Z,1004.48
2022-10-19T10:29:27.716Z,1004.41
2022-10-19T10:30:27.709Z,1004.47
2022-10-19T10:31:27.718Z,1004.44
2022-10-19T10:32:28.690Z,1004.43
2022-10-19T10:33:40.684Z,1004.41
2022-10-19T10:34:37.957Z,1004.38
2022-10-19T10:35:29.667Z,1004.48
2022-10-19T10:36:27.687Z,1004.51
2022-10-19T10:37:27.657Z,1004.45
2022-10-19T10:38:27.687Z,1004.45
2022-10-19T10:39:27.638Z,1004.46
2022-10-19T10:40:27.632Z,1004.42
2022-10-19T10:41:27.647Z,1004.44
2022-10-19T10:42:27.624Z,1004.38
2022-10-19T10:43:27.611Z,1004.42
2022-10-19T10:44:27.604Z,1004.45
2022-10-19T10:45:27.595Z,1004.46
2022-10-19T10:46:27.616Z,1004.44
2022-10-19T10:47:27.590Z,1004.40
2022-10-19T10:48:27.574Z,1004.42
2022-10-19T10:49:27.569Z,1004.40
2022-10-19T10:50:27.555Z,1004.40
2022-10-19T10:51:27.576Z,1004.31
2022-10-19T10:52:27.540Z,1004.34
2022-10-19T10:53:27.533Z,1004.38
2022-10-19T10:54:27.521Z,1004.36
2022-10-19T10:55:27.518Z,1004.36
2022-10-19T10:56:27.535Z,1004.38
2022-10-19T10:57:27.504Z,1004.36
2022-10-19T10:58:29.652Z,1004.25
2022-10-19T10:59:27.486Z,1004.36
2022-10-19T11:00:27.475Z,1004.33
2022-10-19T11:01:27.525Z,1004.26
2022-10-19T11:02:27.498Z,1004.29
2022-10-19T11:03:27.450Z,1004.28
2022-10-19T11:04:27.447Z,1004.37
2022-10-19T11:05:27.445Z,1004.31
2022-10-19T11:06:27.463Z,1004.22
2022-10-19T11:07:27.426Z,1004.26
2022-10-19T11:08:27.435Z,1004.20
2022-10-19T11:09:27.411Z,1004.24
2022-10-19T11:10:27.394Z,1004.18
2022-10-19T11:11:27.417Z,1004.17
2022-10-19T11:12:30.434Z,1004.12
2022-10-19T11:13:27.379Z,1004.12
2022-10-19T11:14:27.374Z,1004.14
2022-10-19T11:15:27.403Z,1003.98
2022-10-19T11:16:27.373Z,1004.07
2022-10-19T11:17:27.343Z,1004.20
2022-10-19T11:18:27.335Z,1004.21
2022-10-19T11:19:27.342Z,1004.11
2022-10-19T11:20:27.322Z,1004.08
2022-10-19T11:21:27.350Z,1004.06
2022-10-19T11:22:27.325Z,1004.06
2022-10-19T11:23:27.294Z,1003.98
2022-10-19T11:24:27.319Z,1004.00
2022-10-19T11:25:27.280Z,1003.91
2022-10-19T11:26:27.296Z,1003.97
2022-10-19T11:27:28.261Z,1003.88
2022-10-19T11:28:27.258Z,1003.89
2022-10-19T11:29:27.249Z,1003.92
2022-10-19T11:30:27.242Z,1003.87
2022-10-19T11:31:29.706Z,1003.85
2022-10-19T11:32:27.263Z,1003.84
2022-10-19T11:33:27.221Z,1003.86
2022-10-19T11:34:27.219Z,1003.75
2022-10-19T11:35:27.208Z,1003.70
2022-10-19T11:36:27.193Z,1003.81
2022-10-19T11:37:27.211Z,1003.68
2022-10-19T11:38:30.005Z,1003.73
2022-10-19T11:39:28.176Z,1003.71
2022-10-19T11:40:27.162Z,1003.73
2022-10-19T11:41:27.156Z,1003.66
2022-10-19T11:42:27.171Z,1003.62
2022-10-19T11:43:27.177Z,1003.69
2022-10-19T11:44:27.142Z,1003.63
2022-10-19T11:45:27.123Z,1003.58
2022-10-19T11:46:27.112Z,1003.66
2022-10-19T11:47:27.132Z,1003.52
2022-10-19T11:48:27.098Z,1003.49
2022-10-19T11:49:27.090Z,1003.53
2022-10-19T11:50:29.681Z,1003.49
2022-10-19T11:51:28.073Z,1003.53
2022-10-19T11:52:27.092Z,1003.52
2022-10-19T11:53:27.062Z,1003.51
2022-10-19T11:54:27.068Z,1003.49
2022-10-19T11:55:27.045Z,1003.44
2022-10-19T11:56:35.007Z,1003.39
2022-10-19T11:57:29.051Z,1003.44
2022-10-19T11:58:30.033Z,1003.37
2022-10-19T11:59:29.020Z,1003.34
2022-10-19T12:00:38.858Z,1003.28
2022-10-19T12:01:29.000Z,1003.38
2022-10-19T12:02:27.066Z,1003.26
2022-10-19T12:03:27.005Z,1003.27
2022-10-19T12:04:26.976Z,1003.22
2022-10-19T12:05:26.969Z,1003.28
2022-10-19T12:06:26.968Z,1003.17
2022-10-19T12:07:27.981Z,1003.20